sensor_id;sensor_type;location;lat;lon;timestamp;temperature;humidity
67901;DHT22;54700;51.796;10.956;2023-06-14T00:02:00;14.50;67.60
67901;DHT22;54700;51.796;10.956;2023-06-14T00:04:30;14.50;68.70
67901;DHT22;54700;51.796;10.956;2023-06-14T00:07:11;14.40;68.60
67901;DHT22;54700;51.796;10.956;2023-06-14T00:09:44;14.40;68.90
67901;DHT22;54700;51.796;10.956;2023-06-14T00:12:18;14.40;69.00
67901;DHT22;54700;51.796;10.956;2023-06-14T00:14:48;14.30;68.70
67901;DHT22;54700;51.796;10.956;2023-06-14T00:17:15;14.20;69.20
67901;DHT22;54700;51.796;10.956;2023-06-14T00:19:45;14.20;70.00
67901;DHT22;54700;51.796;10.956;2023-06-14T00:22:13;14.20;70.50
67901;DHT22;54700;51.796;10.956;2023-06-14T00:24:44;14.20;69.80
67901;DHT22;54700;51.796;10.956;2023-06-14T00:27:14;14.20;69.50
67901;DHT22;54700;51.796;10.956;2023-06-14T00:29:41;14.20;69.60
67901;DHT22;54700;51.796;10.956;2023-06-14T00:32:08;14.20;67.80
67901;DHT22;54700;51.796;10.956;2023-06-14T00:34:35;14.10;68.00
67901;DHT22;54700;51.796;10.956;2023-06-14T00:37:03;14.10;69.10
67901;DHT22;54700;51.796;10.956;2023-06-14T00:39:30;14.00;70.00
67901;DHT22;54700;51.796;10.956;2023-06-14T00:41:57;14.00;70.70
67901;DHT22;54700;51.796;10.956;2023-06-14T00:44:24;13.90;72.40
67901;DHT22;54700;51.796;10.956;2023-06-14T00:46:51;13.90;73.40
67901;DHT22;54700;51.796;10.956;2023-06-14T00:49:18;13.90;73.50
67901;DHT22;54700;51.796;10.956;2023-06-14T00:51:48;13.80;72.60
67901;DHT22;54700;51.796;10.956;2023-06-14T00:54:19;13.80;71.90
67901;DHT22;54700;51.796;10.956;2023-06-14T00:56:55;13.80;72.50
67901;DHT22;54700;51.796;10.956;2023-06-14T00:59:23;13.70;72.30
67901;DHT22;54700;51.796;10.956;2023-06-14T01:01:53;13.70;72.90
67901;DHT22;54700;51.796;10.956;2023-06-14T01:04:27;13.60;73.10
67901;DHT22;54700;51.796;10.956;2023-06-14T01:06:57;13.50;72.60
67901;DHT22;54700;51.796;10.956;2023-06-14T01:09:37;13.50;72.40
67901;DHT22;54700;51.796;10.956;2023-06-14T01:12:19;13.50;72.50
67901;DHT22;54700;51.796;10.956;2023-06-14T01:14:58;13.50;72.50
67901;DHT22;54700;51.796;10.956;2023-06-14T01:17:33;13.50;73.00
67901;DHT22;54700;51.796;10.956;2023-06-14T01:20:04;13.50;73.80
67901;DHT22;54700;51.796;10.956;2023-06-14T01:22:47;13.40;74.30
67901;DHT22;54700;51.796;10.956;2023-06-14T01:25:17;13.40;74.90
67901;DHT22;54700;51.796;10.956;2023-06-14T01:27:47;13.30;75.10
67901;DHT22;54700;51.796;10.956;2023-06-14T01:30:15;13.30;74.80
67901;DHT22;54700;51.796;10.956;2023-06-14T01:32:46;13.30;75.50
67901;DHT22;54700;51.796;10.956;2023-06-14T01:35:16;13.30;76.20
67901;DHT22;54700;51.796;10.956;2023-06-14T01:37:45;13.20;77.00
67901;DHT22;54700;51.796;10.956;2023-06-14T01:40:14;13.20;76.70
67901;DHT22;54700;51.796;10.956;2023-06-14T01:42:42;13.20;76.30
67901;DHT22;54700;51.796;10.956;2023-06-14T01:45:09;13.10;77.50
67901;DHT22;54700;51.796;10.956;2023-06-14T01:47:40;13.00;77.40
67901;DHT22;54700;51.796;10.956;2023-06-14T01:50:07;13.00;76.90
67901;DHT22;54700;51.796;10.956;2023-06-14T01:52:36;13.00;77.40
67901;DHT22;54700;51.796;10.956;2023-06-14T01:55:13;13.00;77.20
67901;DHT22;54700;51.796;10.956;2023-06-14T01:57:43;13.00;76.80
67901;DHT22;54700;51.796;10.956;2023-06-14T02:00:11;13.00;76.80
67901;DHT22;54700;51.796;10.956;2023-06-14T02:02:44;13.00;77.10
67901;DHT22;54700;51.796;10.956;2023-06-14T02:05:17;12.90;76.30
67901;DHT22;54700;51.796;10.956;2023-06-14T02:07:45;12.80;77.10
67901;DHT22;54700;51.796;10.956;2023-06-14T02:10:13;12.80;78.30
67901;DHT22;54700;51.796;10.956;2023-06-14T02:12:40;12.70;79.10
67901;DHT22;54700;51.796;10.956;2023-06-14T02:15:08;12.70;79.20
67901;DHT22;54700;51.796;10.956;2023-06-14T02:17:42;12.80;78.40
67901;DHT22;54700;51.796;10.956;2023-06-14T02:20:09;12.70;78.90
67901;DHT22;54700;51.796;10.956;2023-06-14T02:22:36;12.70;81.70
67901;DHT22;54700;51.796;10.956;2023-06-14T02:25:04;12.60;81.30
67901;DHT22;54700;51.796;10.956;2023-06-14T02:27:33;12.60;82.90
67901;DHT22;54700;51.796;10.956;2023-06-14T02:30:00;12.60;82.40
67901;DHT22;54700;51.796;10.956;2023-06-14T02:32:27;12.50;83.90
67901;DHT22;54700;51.796;10.956;2023-06-14T02:34:54;12.50;83.60
67901;DHT22;54700;51.796;10.956;2023-06-14T02:37:22;12.50;83.60
67901;DHT22;54700;51.796;10.956;2023-06-14T02:39:49;12.40;83.40
67901;DHT22;54700;51.796;10.956;2023-06-14T02:42:16;12.40;84.70
67901;DHT22;54700;51.796;10.956;2023-06-14T02:44:44;12.40;85.20
67901;DHT22;54700;51.796;10.956;2023-06-14T02:47:16;12.30;87.00
67901;DHT22;54700;51.796;10.956;2023-06-14T02:49:43;12.30;86.70
67901;DHT22;54700;51.796;10.956;2023-06-14T02:52:11;12.20;87.10
67901;DHT22;54700;51.796;10.956;2023-06-14T02:54:38;12.20;86.50
67901;DHT22;54700;51.796;10.956;2023-06-14T02:57:05;12.10;87.10
67901;DHT22;54700;51.796;10.956;2023-06-14T02:59:33;12.20;86.90
67901;DHT22;54700;51.796;10.956;2023-06-14T03:02:02;12.10;87.20
67901;DHT22;54700;51.796;10.956;2023-06-14T03:04:29;12.10;87.10
67901;DHT22;54700;51.796;10.956;2023-06-14T03:07:02;12.10;87.60
67901;DHT22;54700;51.796;10.956;2023-06-14T03:09:34;12.10;87.90
67901;DHT22;54700;51.796;10.956;2023-06-14T03:12:02;12.10;88.60
67901;DHT22;54700;51.796;10.956;2023-06-14T03:14:33;12.10;88.30
67901;DHT22;54700;51.796;10.956;2023-06-14T03:17:07;12.10;88.30
67901;DHT22;54700;51.796;10.956;2023-06-14T03:19:46;12.20;88.50
67901;DHT22;54700;51.796;10.956;2023-06-14T03:22:13;12.30;88.30
67901;DHT22;54700;51.796;10.956;2023-06-14T03:24:43;12.30;87.80
67901;DHT22;54700;51.796;10.956;2023-06-14T03:27:10;12.30;88.60
67901;DHT22;54700;51.796;10.956;2023-06-14T03:29:38;12.30;89.50
67901;DHT22;54700;51.796;10.956;2023-06-14T03:32:07;12.30;86.80
67901;DHT22;54700;51.796;10.956;2023-06-14T03:34:34;12.20;86.60
67901;DHT22;54700;51.796;10.956;2023-06-14T03:37:03;12.20;87.30
67901;DHT22;54700;51.796;10.956;2023-06-14T03:39:30;12.20;86.80
67901;DHT22;54700;51.796;10.956;2023-06-14T03:41:57;12.30;87.00
67901;DHT22;54700;51.796;10.956;2023-06-14T03:44:24;12.30;85.90
67901;DHT22;54700;51.796;10.956;2023-06-14T03:46:55;12.30;86.20
67901;DHT22;54700;51.796;10.956;2023-06-14T03:49:25;12.30;86.80
67901;DHT22;54700;51.796;10.956;2023-06-14T03:51:52;12.30;86.40
67901;DHT22;54700;51.796;10.956;2023-06-14T03:54:20;12.40;85.90
67901;DHT22;54700;51.796;10.956;2023-06-14T03:56:50;12.50;85.60
67901;DHT22;54700;51.796;10.956;2023-06-14T03:59:19;12.70;84.30
67901;DHT22;54700;51.796;10.956;2023-06-14T04:01:46;12.80;84.50
67901;DHT22;54700;51.796;10.956;2023-06-14T04:04:16;13.00;83.20
67901;DHT22;54700;51.796;10.956;2023-06-14T04:06:59;13.10;82.30
67901;DHT22;54700;51.796;10.956;2023-06-14T04:09:29;13.30;80.00
67901;DHT22;54700;51.796;10.956;2023-06-14T04:11:56;13.40;79.60
67901;DHT22;54700;51.796;10.956;2023-06-14T04:14:23;13.40;79.20
67901;DHT22;54700;51.796;10.956;2023-06-14T04:16:49;13.30;80.00
67901;DHT22;54700;51.796;10.956;2023-06-14T04:19:16;13.20;80.90
67901;DHT22;54700;51.796;10.956;2023-06-14T04:21:43;13.20;81.20
67901;DHT22;54700;51.796;10.956;2023-06-14T04:24:11;13.30;80.90
67901;DHT22;54700;51.796;10.956;2023-06-14T04:26:40;13.30;79.60
67901;DHT22;54700;51.796;10.956;2023-06-14T04:29:10;13.50;78.70
67901;DHT22;54700;51.796;10.956;2023-06-14T04:31:39;13.60;77.80
67901;DHT22;54700;51.796;10.956;2023-06-14T04:34:06;13.80;76.90
67901;DHT22;54700;51.796;10.956;2023-06-14T04:36:33;13.90;76.30
67901;DHT22;54700;51.796;10.956;2023-06-14T04:39:05;13.80;76.20
67901;DHT22;54700;51.796;10.956;2023-06-14T04:41:44;13.80;76.90
67901;DHT22;54700;51.796;10.956;2023-06-14T04:44:12;13.70;77.10
67901;DHT22;54700;51.796;10.956;2023-06-14T04:46:39;13.70;78.20
67901;DHT22;54700;51.796;10.956;2023-06-14T04:49:11;13.80;77.70
67901;DHT22;54700;51.796;10.956;2023-06-14T04:54:29;13.90;76.60
67901;DHT22;54700;51.796;10.956;2023-06-14T04:57:07;13.80;77.00
67901;DHT22;54700;51.796;10.956;2023-06-14T04:59:55;13.90;77.20
67901;DHT22;54700;51.796;10.956;2023-06-14T05:02:23;13.80;77.70
67901;DHT22;54700;51.796;10.956;2023-06-14T05:04:54;13.80;78.60
67901;DHT22;54700;51.796;10.956;2023-06-14T05:07:27;13.90;78.30
67901;DHT22;54700;51.796;10.956;2023-06-14T05:09:57;14.00;77.10
67901;DHT22;54700;51.796;10.956;2023-06-14T05:12:26;14.10;76.00
67901;DHT22;54700;51.796;10.956;2023-06-14T05:14:54;14.40;74.80
67901;DHT22;54700;51.796;10.956;2023-06-14T05:17:24;15.00;71.30
67901;DHT22;54700;51.796;10.956;2023-06-14T05:19:56;15.90;65.70
67901;DHT22;54700;51.796;10.956;2023-06-14T05:22:28;16.20;63.30
67901;DHT22;54700;51.796;10.956;2023-06-14T05:25:05;16.20;62.90
67901;DHT22;54700;51.796;10.956;2023-06-14T05:27:34;16.70;60.90
67901;DHT22;54700;51.796;10.956;2023-06-14T05:30:09;17.50;57.50
67901;DHT22;54700;51.796;10.956;2023-06-14T05:32:52;17.60;55.80
67901;DHT22;54700;51.796;10.956;2023-06-14T05:35:20;17.10;58.40
67901;DHT22;54700;51.796;10.956;2023-06-14T05:37:52;16.60;61.70
67901;DHT22;54700;51.796;10.956;2023-06-14T05:40:28;16.10;64.50
67901;DHT22;54700;51.796;10.956;2023-06-14T05:43:00;15.70;66.90
67901;DHT22;54700;51.796;10.956;2023-06-14T05:45:34;15.40;70.60
67901;DHT22;54700;51.796;10.956;2023-06-14T05:48:01;15.20;72.60
67901;DHT22;54700;51.796;10.956;2023-06-14T05:50:28;15.00;73.30
67901;DHT22;54700;51.796;10.956;2023-06-14T05:53:09;14.80;74.60
67901;DHT22;54700;51.796;10.956;2023-06-14T05:56:03;14.80;74.70
67901;DHT22;54700;51.796;10.956;2023-06-14T05:58:46;14.80;74.80
67901;DHT22;54700;51.796;10.956;2023-06-14T06:01:52;14.60;76.00
67901;DHT22;54700;51.796;10.956;2023-06-14T06:04:28;14.50;77.60
67901;DHT22;54700;51.796;10.956;2023-06-14T06:07:18;14.50;78.80
67901;DHT22;54700;51.796;10.956;2023-06-14T06:09:58;14.60;78.00
67901;DHT22;54700;51.796;10.956;2023-06-14T06:12:26;14.70;76.40
67901;DHT22;54700;51.796;10.956;2023-06-14T06:15:06;14.70;76.80
67901;DHT22;54700;51.796;10.956;2023-06-14T06:18:00;14.60;77.90
67901;DHT22;54700;51.796;10.956;2023-06-14T06:20:31;14.70;77.80
67901;DHT22;54700;51.796;10.956;2023-06-14T06:23:08;14.60;76.70
67901;DHT22;54700;51.796;10.956;2023-06-14T06:25:53;14.70;77.50
67901;DHT22;54700;51.796;10.956;2023-06-14T06:28:26;14.80;77.10
67901;DHT22;54700;51.796;10.956;2023-06-14T06:31:02;14.80;78.20
67901;DHT22;54700;51.796;10.956;2023-06-14T06:33:39;14.90;77.00
67901;DHT22;54700;51.796;10.956;2023-06-14T06:36:24;14.90;77.80
67901;DHT22;54700;51.796;10.956;2023-06-14T06:39:16;14.90;77.50
67901;DHT22;54700;51.796;10.956;2023-06-14T06:41:58;15.00;77.60
67901;DHT22;54700;51.796;10.956;2023-06-14T06:44:47;14.90;77.50
67901;DHT22;54700;51.796;10.956;2023-06-14T06:47:19;14.90;77.10
67901;DHT22;54700;51.796;10.956;2023-06-14T06:49:47;15.00;78.20
67901;DHT22;54700;51.796;10.956;2023-06-14T06:52:15;15.00;77.20
67901;DHT22;54700;51.796;10.956;2023-06-14T06:54:44;15.10;76.70
67901;DHT22;54700;51.796;10.956;2023-06-14T06:57:12;15.20;77.40
67901;DHT22;54700;51.796;10.956;2023-06-14T06:59:39;15.20;77.40
67901;DHT22;54700;51.796;10.956;2023-06-14T07:02:07;15.30;74.40
67901;DHT22;54700;51.796;10.956;2023-06-14T07:04:36;15.40;75.70
67901;DHT22;54700;51.796;10.956;2023-06-14T07:07:03;15.50;74.80
67901;DHT22;54700;51.796;10.956;2023-06-14T07:09:30;15.50;76.60
67901;DHT22;54700;51.796;10.956;2023-06-14T07:12:05;15.60;74.80
67901;DHT22;54700;51.796;10.956;2023-06-14T07:14:41;15.80;72.90
67901;DHT22;54700;51.796;10.956;2023-06-14T07:17:09;15.80;72.70
67901;DHT22;54700;51.796;10.956;2023-06-14T07:19:39;15.80;71.80
67901;DHT22;54700;51.796;10.956;2023-06-14T07:22:10;15.90;71.90
67901;DHT22;54700;51.796;10.956;2023-06-14T07:24:39;15.80;70.30
67901;DHT22;54700;51.796;10.956;2023-06-14T07:27:09;15.90;72.10
67901;DHT22;54700;51.796;10.956;2023-06-14T07:29:38;15.90;69.40
67901;DHT22;54700;51.796;10.956;2023-06-14T07:32:06;16.00;68.80
67901;DHT22;54700;51.796;10.956;2023-06-14T07:34:41;16.00;67.10
67901;DHT22;54700;51.796;10.956;2023-06-14T07:37:18;16.00;67.30
67901;DHT22;54700;51.796;10.956;2023-06-14T07:40:00;16.10;68.10
67901;DHT22;54700;51.796;10.956;2023-06-14T07:42:33;16.20;66.50
67901;DHT22;54700;51.796;10.956;2023-06-14T07:45:07;16.30;65.30
67901;DHT22;54700;51.796;10.956;2023-06-14T07:47:39;16.30;64.30
67901;DHT22;54700;51.796;10.956;2023-06-14T07:50:21;16.40;64.30
67901;DHT22;54700;51.796;10.956;2023-06-14T07:52:50;16.50;64.60
67901;DHT22;54700;51.796;10.956;2023-06-14T07:55:19;16.70;63.20
67901;DHT22;54700;51.796;10.956;2023-06-14T07:57:50;16.70;62.10
67901;DHT22;54700;51.796;10.956;2023-06-14T08:03:16;16.70;63.40
67901;DHT22;54700;51.796;10.956;2023-06-14T08:05:46;16.80;62.80
67901;DHT22;54700;51.796;10.956;2023-06-14T08:08:23;16.90;60.70
67901;DHT22;54700;51.796;10.956;2023-06-14T08:10:50;17.10;60.40
67901;DHT22;54700;51.796;10.956;2023-06-14T08:13:27;17.20;59.90
67901;DHT22;54700;51.796;10.956;2023-06-14T08:15:57;17.30;59.80
67901;DHT22;54700;51.796;10.956;2023-06-14T08:18:26;17.60;59.60
67901;DHT22;54700;51.796;10.956;2023-06-14T08:20:57;17.70;59.30
67901;DHT22;54700;51.796;10.956;2023-06-14T08:23:27;17.80;57.10
67901;DHT22;54700;51.796;10.956;2023-06-14T08:25:55;17.80;57.40
67901;DHT22;54700;51.796;10.956;2023-06-14T08:28:24;17.70;56.20
67901;DHT22;54700;51.796;10.956;2023-06-14T08:30:51;17.60;55.20
67901;DHT22;54700;51.796;10.956;2023-06-14T08:33:18;17.50;55.70
67901;DHT22;54700;51.796;10.956;2023-06-14T08:35:47;17.50;55.30
67901;DHT22;54700;51.796;10.956;2023-06-14T08:38:31;17.40;54.50
67901;DHT22;54700;51.796;10.956;2023-06-14T08:40:59;17.50;54.50
67901;DHT22;54700;51.796;10.956;2023-06-14T08:43:31;17.40;55.00
67901;DHT22;54700;51.796;10.956;2023-06-14T08:46:00;17.40;55.50
67901;DHT22;54700;51.796;10.956;2023-06-14T08:48:30;17.40;55.00
67901;DHT22;54700;51.796;10.956;2023-06-14T08:51:00;17.50;56.10
67901;DHT22;54700;51.796;10.956;2023-06-14T08:53:33;17.60;54.60
67901;DHT22;54700;51.796;10.956;2023-06-14T08:56:16;17.60;54.20
67901;DHT22;54700;51.796;10.956;2023-06-14T08:58:52;17.60;54.90
67901;DHT22;54700;51.796;10.956;2023-06-14T09:01:22;17.60;54.50
67901;DHT22;54700;51.796;10.956;2023-06-14T09:04:05;17.60;54.80
67901;DHT22;54700;51.796;10.956;2023-06-14T09:06:43;17.80;55.20
67901;DHT22;54700;51.796;10.956;2023-06-14T09:09:20;17.90;53.60
67901;DHT22;54700;51.796;10.956;2023-06-14T09:11:49;18.20;52.40
67901;DHT22;54700;51.796;10.956;2023-06-14T09:14:25;18.30;51.90
67901;DHT22;54700;51.796;10.956;2023-06-14T09:17:02;18.30;51.90
67901;DHT22;54700;51.796;10.956;2023-06-14T09:19:33;18.30;51.10
67901;DHT22;54700;51.796;10.956;2023-06-14T09:22:04;18.20;51.30
67901;DHT22;54700;51.796;10.956;2023-06-14T09:24:38;18.10;51.10
67901;DHT22;54700;51.796;10.956;2023-06-14T09:27:15;18.00;51.40
67901;DHT22;54700;51.796;10.956;2023-06-14T09:29:45;18.00;51.10
67901;DHT22;54700;51.796;10.956;2023-06-14T09:32:30;18.10;51.50
67901;DHT22;54700;51.796;10.956;2023-06-14T09:35:06;18.30;51.90
67901;DHT22;54700;51.796;10.956;2023-06-14T09:41:31;18.50;49.90
67901;DHT22;54700;51.796;10.956;2023-06-14T09:47:58;18.50;49.10
67901;DHT22;54700;51.796;10.956;2023-06-14T09:50:54;18.60;49.90
67901;DHT22;54700;51.796;10.956;2023-06-14T09:53:35;18.70;49.50
67901;DHT22;54700;51.796;10.956;2023-06-14T09:56:22;18.70;48.90
67901;DHT22;54700;51.796;10.956;2023-06-14T09:59:34;18.80;49.10
67901;DHT22;54700;51.796;10.956;2023-06-14T10:02:31;19.00;48.20
67901;DHT22;54700;51.796;10.956;2023-06-14T10:05:08;19.40;47.70
67901;DHT22;54700;51.796;10.956;2023-06-14T10:07:52;19.50;47.30
67901;DHT22;54700;51.796;10.956;2023-06-14T10:10:31;19.80;47.40
67901;DHT22;54700;51.796;10.956;2023-06-14T10:13:07;20.20;46.50
67901;DHT22;54700;51.796;10.956;2023-06-14T10:15:41;20.40;46.00
67901;DHT22;54700;51.796;10.956;2023-06-14T10:18:22;20.40;45.20
67901;DHT22;54700;51.796;10.956;2023-06-14T10:21:04;20.10;44.60
67901;DHT22;54700;51.796;10.956;2023-06-14T10:23:47;20.00;45.20
67901;DHT22;54700;51.796;10.956;2023-06-14T10:26:20;20.00;45.50
67901;DHT22;54700;51.796;10.956;2023-06-14T10:28:58;20.10;45.20
67901;DHT22;54700;51.796;10.956;2023-06-14T10:31:43;20.20;45.40
67901;DHT22;54700;51.796;10.956;2023-06-14T10:34:12;20.50;45.70
67901;DHT22;54700;51.796;10.956;2023-06-14T10:36:50;20.70;45.00
67901;DHT22;54700;51.796;10.956;2023-06-14T10:39:28;20.90;45.00
67901;DHT22;54700;51.796;10.956;2023-06-14T10:41:56;21.00;44.60
67901;DHT22;54700;51.796;10.956;2023-06-14T10:47:22;21.00;43.50
67901;DHT22;54700;51.796;10.956;2023-06-14T10:50:08;20.90;44.20
67901;DHT22;54700;51.796;10.956;2023-06-14T10:52:45;20.90;44.60
67901;DHT22;54700;51.796;10.956;2023-06-14T10:55:12;20.70;45.00
67901;DHT22;54700;51.796;10.956;2023-06-14T10:57:43;20.70;45.00
67901;DHT22;54700;51.796;10.956;2023-06-14T11:00:14;20.70;44.90
67901;DHT22;54700;51.796;10.956;2023-06-14T11:03:14;20.70;44.70
67901;DHT22;54700;51.796;10.956;2023-06-14T11:06:06;20.80;44.90
67901;DHT22;54700;51.796;10.956;2023-06-14T11:08:50;20.80;44.80
67901;DHT22;54700;51.796;10.956;2023-06-14T11:11:36;20.90;44.90
67901;DHT22;54700;51.796;10.956;2023-06-14T11:14:05;20.90;44.40
67901;DHT22;54700;51.796;10.956;2023-06-14T11:16:33;20.80;44.60
67901;DHT22;54700;51.796;10.956;2023-06-14T11:19:02;20.70;44.60
67901;DHT22;54700;51.796;10.956;2023-06-14T11:21:33;20.70;45.10
67901;DHT22;54700;51.796;10.956;2023-06-14T11:24:00;20.70;45.00
67901;DHT22;54700;51.796;10.956;2023-06-14T11:26:30;20.70;44.90
67901;DHT22;54700;51.796;10.956;2023-06-14T11:29:00;20.60;44.60
67901;DHT22;54700;51.796;10.956;2023-06-14T11:31:27;20.80;45.20
67901;DHT22;54700;51.796;10.956;2023-06-14T11:33:56;20.80;44.60
67901;DHT22;54700;51.796;10.956;2023-06-14T11:36:29;20.80;45.00
67901;DHT22;54700;51.796;10.956;2023-06-14T11:39:02;20.90;45.40
67901;DHT22;54700;51.796;10.956;2023-06-14T11:41:36;20.90;45.00
67901;DHT22;54700;51.796;10.956;2023-06-14T11:44:13;20.90;45.50
67901;DHT22;54700;51.796;10.956;2023-06-14T11:46:44;20.90;45.50
67901;DHT22;54700;51.796;10.956;2023-06-14T11:49:21;21.00;45.70
67901;DHT22;54700;51.796;10.956;2023-06-14T11:51:52;21.00;44.70
67901;DHT22;54700;51.796;10.956;2023-06-14T11:54:22;21.20;45.00
67901;DHT22;54700;51.796;10.956;2023-06-14T11:57:03;21.40;44.10
67901;DHT22;54700;51.796;10.956;2023-06-14T11:59:41;21.50;43.30
67901;DHT22;54700;51.796;10.956;2023-06-14T12:02:13;21.60;43.60
67901;DHT22;54700;51.796;10.956;2023-06-14T12:04:41;21.50;43.10
67901;DHT22;54700;51.796;10.956;2023-06-14T12:07:10;21.40;43.20
67901;DHT22;54700;51.796;10.956;2023-06-14T12:09:46;21.30;43.80
67901;DHT22;54700;51.796;10.956;2023-06-14T12:12:34;21.10;44.10
67901;DHT22;54700;51.796;10.956;2023-06-14T12:15:02;21.00;45.00
67901;DHT22;54700;51.796;10.956;2023-06-14T12:17:31;21.00;45.00
67901;DHT22;54700;51.796;10.956;2023-06-14T12:19:58;21.10;44.80
67901;DHT22;54700;51.796;10.956;2023-06-14T12:22:36;21.10;44.60
67901;DHT22;54700;51.796;10.956;2023-06-14T12:25:04;21.20;44.30
67901;DHT22;54700;51.796;10.956;2023-06-14T12:27:35;21.30;44.60
67901;DHT22;54700;51.796;10.956;2023-06-14T12:30:02;21.40;44.60
67901;DHT22;54700;51.796;10.956;2023-06-14T12:32:32;21.40;44.40
67901;DHT22;54700;51.796;10.956;2023-06-14T12:35:00;21.40;44.70
67901;DHT22;54700;51.796;10.956;2023-06-14T12:37:28;21.30;44.10
67901;DHT22;54700;51.796;10.956;2023-06-14T12:39:55;21.30;44.60
67901;DHT22;54700;51.796;10.956;2023-06-14T12:42:23;21.20;44.40
67901;DHT22;54700;51.796;10.956;2023-06-14T12:44:56;21.20;43.70
67901;DHT22;54700;51.796;10.956;2023-06-14T12:47:23;21.10;43.70
67901;DHT22;54700;51.796;10.956;2023-06-14T12:49:50;21.20;44.30
67901;DHT22;54700;51.796;10.956;2023-06-14T12:52:17;21.20;44.00
67901;DHT22;54700;51.796;10.956;2023-06-14T12:54:44;21.20;44.00
67901;DHT22;54700;51.796;10.956;2023-06-14T12:57:11;21.20;44.60
67901;DHT22;54700;51.796;10.956;2023-06-14T12:59:40;21.20;44.60
67901;DHT22;54700;51.796;10.956;2023-06-14T13:02:13;21.00;44.80
67901;DHT22;54700;51.796;10.956;2023-06-14T13:04:42;20.90;45.40
67901;DHT22;54700;51.796;10.956;2023-06-14T13:07:09;20.90;45.40
67901;DHT22;54700;51.796;10.956;2023-06-14T13:09:37;20.90;45.20
67901;DHT22;54700;51.796;10.956;2023-06-14T13:12:04;20.90;45.10
67901;DHT22;54700;51.796;10.956;2023-06-14T13:14:34;20.80;45.20
67901;DHT22;54700;51.796;10.956;2023-06-14T13:17:02;20.80;45.70
67901;DHT22;54700;51.796;10.956;2023-06-14T13:19:29;20.90;46.10
67901;DHT22;54700;51.796;10.956;2023-06-14T13:21:56;20.90;45.70
67901;DHT22;54700;51.796;10.956;2023-06-14T13:24:23;20.90;45.60
67901;DHT22;54700;51.796;10.956;2023-06-14T13:26:50;20.80;45.70
67901;DHT22;54700;51.796;10.956;2023-06-14T13:29:17;20.90;45.80
67901;DHT22;54700;51.796;10.956;2023-06-14T13:31:44;20.90;45.40
67901;DHT22;54700;51.796;10.956;2023-06-14T13:34:13;21.00;45.30
67901;DHT22;54700;51.796;10.956;2023-06-14T13:36:40;21.10;45.50
67901;DHT22;54700;51.796;10.956;2023-06-14T13:39:07;21.10;44.60
67901;DHT22;54700;51.796;10.956;2023-06-14T13:41:34;21.10;44.40
67901;DHT22;54700;51.796;10.956;2023-06-14T13:44:01;21.10;44.60
67901;DHT22;54700;51.796;10.956;2023-06-14T13:46:30;21.10;44.50
67901;DHT22;54700;51.796;10.956;2023-06-14T13:48:59;21.00;45.20
67901;DHT22;54700;51.796;10.956;2023-06-14T13:51:32;21.00;45.20
67901;DHT22;54700;51.796;10.956;2023-06-14T13:54:00;20.90;45.10
67901;DHT22;54700;51.796;10.956;2023-06-14T13:56:27;20.80;45.10
67901;DHT22;54700;51.796;10.956;2023-06-14T13:58:55;20.80;45.30
67901;DHT22;54700;51.796;10.956;2023-06-14T14:01:25;21.00;45.00
67901;DHT22;54700;51.796;10.956;2023-06-14T14:04:00;21.00;44.40
67901;DHT22;54700;51.796;10.956;2023-06-14T14:06:27;21.10;43.90
67901;DHT22;54700;51.796;10.956;2023-06-14T14:08:56;21.10;43.80
67901;DHT22;54700;51.796;10.956;2023-06-14T14:11:23;21.20;44.10
67901;DHT22;54700;51.796;10.956;2023-06-14T14:13:50;21.10;44.10
67901;DHT22;54700;51.796;10.956;2023-06-14T14:16:17;21.20;44.00
67901;DHT22;54700;51.796;10.956;2023-06-14T14:18:47;21.10;44.10
67901;DHT22;54700;51.796;10.956;2023-06-14T14:21:13;21.10;44.50
67901;DHT22;54700;51.796;10.956;2023-06-14T14:23:42;21.10;44.50
67901;DHT22;54700;51.796;10.956;2023-06-14T14:26:13;21.30;44.70
67901;DHT22;54700;51.796;10.956;2023-06-14T14:28:41;21.40;44.20
67901;DHT22;54700;51.796;10.956;2023-06-14T14:31:08;21.40;43.80
67901;DHT22;54700;51.796;10.956;2023-06-14T14:33:38;21.60;44.30
67901;DHT22;54700;51.796;10.956;2023-06-14T14:36:08;21.90;43.30
67901;DHT22;54700;51.796;10.956;2023-06-14T14:38:35;21.90;43.40
67901;DHT22;54700;51.796;10.956;2023-06-14T14:41:03;21.80;42.50
67901;DHT22;54700;51.796;10.956;2023-06-14T14:43:33;21.80;43.30
67901;DHT22;54700;51.796;10.956;2023-06-14T14:46:03;21.80;42.80
67901;DHT22;54700;51.796;10.956;2023-06-14T14:48:30;21.70;42.90
67901;DHT22;54700;51.796;10.956;2023-06-14T14:50:57;21.60;43.60
67901;DHT22;54700;51.796;10.956;2023-06-14T14:53:24;21.50;42.90
67901;DHT22;54700;51.796;10.956;2023-06-14T14:55:51;21.50;43.40
67901;DHT22;54700;51.796;10.956;2023-06-14T14:58:18;21.40;43.80
67901;DHT22;54700;51.796;10.956;2023-06-14T15:00:47;21.30;44.00
67901;DHT22;54700;51.796;10.956;2023-06-14T15:03:14;21.30;43.90
67901;DHT22;54700;51.796;10.956;2023-06-14T15:05:41;21.30;43.30
67901;DHT22;54700;51.796;10.956;2023-06-14T15:08:08;21.50;43.60
67901;DHT22;54700;51.796;10.956;2023-06-14T15:10:37;21.80;43.80
67901;DHT22;54700;51.796;10.956;2023-06-14T15:13:05;22.20;42.70
67901;DHT22;54700;51.796;10.956;2023-06-14T15:15:33;22.30;42.60
67901;DHT22;54700;51.796;10.956;2023-06-14T15:18:01;22.30;42.60
67901;DHT22;54700;51.796;10.956;2023-06-14T15:20:29;22.30;43.10
67901;DHT22;54700;51.796;10.956;2023-06-14T15:22:56;22.20;42.30
67901;DHT22;54700;51.796;10.956;2023-06-14T15:25:25;22.10;42.50
67901;DHT22;54700;51.796;10.956;2023-06-14T15:27:54;22.00;42.80
67901;DHT22;54700;51.796;10.956;2023-06-14T15:30:22;21.90;43.20
67901;DHT22;54700;51.796;10.956;2023-06-14T15:32:49;21.70;43.70
67901;DHT22;54700;51.796;10.956;2023-06-14T15:35:19;21.50;44.10
67901;DHT22;54700;51.796;10.956;2023-06-14T15:37:46;21.40;44.60
67901;DHT22;54700;51.796;10.956;2023-06-14T15:40:14;21.30;45.00
67901;DHT22;54700;51.796;10.956;2023-06-14T15:42:42;21.10;44.80
67901;DHT22;54700;51.796;10.956;2023-06-14T15:45:09;21.00;45.30
67901;DHT22;54700;51.796;10.956;2023-06-14T15:47:36;20.90;45.40
67901;DHT22;54700;51.796;10.956;2023-06-14T15:50:04;20.80;45.80
67901;DHT22;54700;51.796;10.956;2023-06-14T15:52:34;20.70;46.00
67901;DHT22;54700;51.796;10.956;2023-06-14T15:55:01;20.60;46.40
67901;DHT22;54700;51.796;10.956;2023-06-14T15:57:29;20.70;46.30
67901;DHT22;54700;51.796;10.956;2023-06-14T15:59:56;20.70;46.20